Time,TemperatureF,DewpointF,PressureIn,WindDirection,WindDirectionDegrees,WindSpeedMPH,WindSpeedGustMPH,Humidity,HourlyPrecipIn,Conditions,Clouds,dailyrainin,SoftwareType,DateUTC
2013-03-24 00:02:00,28.0,27.0,30.09,NNE,22,11.0,15.0,95,0.00,,,0.03,,2013-03-24 05:02:00,
2013-03-24 00:12:00,28.0,27.0,30.09,NNE,22,11.0,15.0,95,0.00,,,0.03,,2013-03-24 05:12:00,
2013-03-24 00:22:00,28.0,27.0,30.10,NNE,24,9.0,13.0,94,0.00,,,0.03,,2013-03-24 05:22:00,
2013-03-24 00:32:00,29.0,27.0,30.09,NNE,20,10.0,13.0,94,0.00,,,0.03,,2013-03-24 05:32:00,
2013-03-24 00:42:00,29.0,27.0,30.09,NNE,20,10.0,13.0,94,0.00,,,0.03,,2013-03-24 05:42:00,
2013-03-24 00:52:00,29.0,27.0,30.09,North,10,9.0,11.0,94,0.00,,,0.03,,2013-03-24 05:52:00,
2013-03-24 01:02:00,29.0,27.0,30.09,North,8,9.0,16.0,94,0.00,,,0.03,,2013-03-24 06:02:00,
2013-03-24 01:12:00,29.0,27.0,30.09,North,8,9.0,16.0,94,0.00,,,0.03,,2013-03-24 06:12:00,
2013-03-24 01:22:00,29.0,27.0,30.09,NNE,22,7.0,9.0,94,0.00,,,0.03,,2013-03-24 06:22:00,
2013-03-24 01:32:00,29.0,28.0,30.09,North,8,11.0,15.0,95,0.00,,,0.03,,2013-03-24 06:32:00,
2013-03-24 01:42:00,29.0,28.0,30.09,North,8,11.0,15.0,95,0.00,,,0.03,,2013-03-24 06:42:00,
2013-03-24 01:52:00,28.0,27.0,30.09,North,4,14.0,19.0,95,0.00,,,0.03,,2013-03-24 06:52:00,
2013-03-24 02:02:00,27.0,26.0,30.08,North,7,14.0,17.0,96,0.00,,,0.03,,2013-03-24 07:02:00,
2013-03-24 02:12:00,27.0,26.0,30.08,North,7,14.0,17.0,96,0.00,,,0.03,,2013-03-24 07:12:00,
2013-03-24 02:22:00,27.0,26.0,30.08,North,2,16.0,20.0,96,0.01,,,0.04,,2013-03-24 07:22:00,
2013-03-24 02:32:00,27.0,26.0,30.08,North,0,14.0,18.0,96,0.01,,,0.04,,2013-03-24 07:32:00,
2013-03-24 02:42:00,27.0,26.0,30.08,North,0,14.0,18.0,96,0.01,,,0.04,,2013-03-24 07:42:00,
2013-03-24 02:52:00,26.0,25.0,30.08,North,354,13.0,14.0,96,0.01,,,0.04,,2013-03-24 07:52:00,
2013-03-24 03:03:00,26.0,25.0,30.08,NNW,344,18.0,26.0,96,0.01,,,0.04,,2013-03-24 08:03:00,
2013-03-24 03:12:00,26.0,25.0,30.08,NNW,344,18.0,26.0,96,0.01,,,0.04,,2013-03-24 08:12:00,
2013-03-24 03:22:00,26.0,25.0,30.08,North,352,16.0,24.0,96,0.00,,,0.04,,2013-03-24 08:22:00,
2013-03-24 03:32:00,26.0,25.0,30.08,North,354,17.0,23.0,96,0.00,,,0.04,,2013-03-24 08:32:00,
2013-03-24 03:42:00,26.0,25.0,30.08,North,354,17.0,23.0,96,0.00,,,0.04,,2013-03-24 08:42:00,
2013-03-24 03:52:00,26.0,25.0,30.08,North,355,15.0,24.0,95,0.00,,,0.04,,2013-03-24 08:52:00,
2013-03-24 04:02:00,26.0,25.0,30.07,North,0,16.0,17.0,94,0.00,,,0.04,,2013-03-24 09:02:00,
2013-03-24 04:12:00,26.0,25.0,30.07,North,0,16.0,17.0,94,0.00,,,0.04,,2013-03-24 09:12:00,
2013-03-24 04:22:00,26.0,25.0,30.07,North,0,14.0,21.0,94,0.00,,,0.04,,2013-03-24 09:22:00,
2013-03-24 04:33:00,26.0,25.0,30.07,North,7,12.0,15.0,95,0.00,,,0.04,,2013-03-24 09:33:00,
2013-03-24 04:42:00,26.0,25.0,30.07,North,7,12.0,15.0,95,0.00,,,0.04,,2013-03-24 09:42:00,
2013-03-24 04:52:00,25.0,23.0,30.06,North,10,18.0,24.0,92,0.00,,,0.04,,2013-03-24 09:52:00,
2013-03-24 05:02:00,25.0,23.0,30.06,North,4,13.0,17.0,92,0.00,,,0.04,,2013-03-24 10:02:00,
2013-03-24 05:12:00,25.0,23.0,30.06,North,4,13.0,17.0,92,0.00,,,0.04,,2013-03-24 10:12:00,
2013-03-24 05:22:00,25.0,23.0,30.06,NNE,22,12.0,15.0,92,0.00,,,0.04,,2013-03-24 10:22:00,
2013-03-24 05:32:00,25.0,23.0,30.06,North,5,12.0,15.0,93,0.00,,,0.04,,2013-03-24 10:32:00,
2013-03-24 05:42:00,25.0,23.0,30.06,North,5,12.0,15.0,93,0.00,,,0.04,,2013-03-24 10:42:00,
2013-03-24 05:52:00,25.0,24.0,30.06,NNE,14,9.0,12.0,94,0.00,,,0.04,,2013-03-24 10:52:00,
2013-03-24 06:03:00,25.0,24.0,30.06,North,6,12.0,15.0,94,0.00,,,0.04,,2013-03-24 11:03:00,
2013-03-24 06:12:00,25.0,24.0,30.06,North,6,12.0,15.0,94,0.00,,,0.04,,2013-03-24 11:12:00,
2013-03-24 06:22:00,25.0,24.0,30.06,NNE,12,9.0,14.0,94,0.00,,,0.04,,2013-03-24 11:22:00,
2013-03-24 06:32:00,25.0,24.0,30.06,North,355,9.0,13.0,94,0.00,,,0.04,,2013-03-24 11:32:00,
2013-03-24 06:42:00,25.0,24.0,30.06,North,355,9.0,13.0,94,0.00,,,0.04,,2013-03-24 11:42:00,
2013-03-24 06:52:00,25.0,24.0,30.06,North,356,10.0,14.0,94,0.00,,,0.04,,2013-03-24 11:52:00,
2013-03-24 07:02:00,25.0,24.0,30.06,NNW,348,9.0,12.0,94,0.00,,,0.04,,2013-03-24 12:02:00,
2013-03-24 07:12:00,25.0,24.0,30.06,NNW,348,9.0,12.0,94,0.00,,,0.04,,2013-03-24 12:12:00,
2013-03-24 07:22:00,25.0,24.0,30.05,North,351,11.0,14.0,95,0.00,,,0.04,,2013-03-24 12:22:00,
2013-03-24 07:32:00,25.0,24.0,30.05,North,351,13.0,15.0,95,0.00,,,0.04,,2013-03-24 12:32:00,
2013-03-24 07:42:00,25.0,24.0,30.05,North,351,13.0,15.0,95,0.00,,,0.04,,2013-03-24 12:42:00,
2013-03-24 07:52:00,25.0,24.0,30.05,North,0,11.0,14.0,95,0.00,,,0.04,,2013-03-24 12:52:00,
2013-03-24 08:02:00,25.0,24.0,30.05,North,355,13.0,18.0,94,0.00,,,0.04,,2013-03-24 13:02:00,
2013-03-24 08:12:00,25.0,24.0,30.05,North,355,13.0,18.0,94,0.00,,,0.04,,2013-03-24 13:12:00,
2013-03-24 08:22:00,25.0,23.0,30.05,North,352,14.0,15.0,92,0.00,,,0.04,,2013-03-24 13:22:00,
2013-03-24 08:32:00,25.0,23.0,30.05,NNW,340,13.0,15.0,92,0.00,,,0.04,,2013-03-24 13:32:00,
2013-03-24 08:42:00,25.0,23.0,30.05,NNW,340,13.0,15.0,92,0.00,,,0.04,,2013-03-24 13:42:00,
2013-03-24 08:52:00,25.0,23.0,30.06,NNW,329,13.0,18.0,92,0.00,,,0.04,,2013-03-24 13:52:00,
2013-03-24 09:02:00,25.0,23.0,30.06,NNW,342,13.0,22.0,92,0.00,,,0.04,,2013-03-24 14:02:00,
2013-03-24 09:12:00,25.0,23.0,30.06,NNW,342,13.0,22.0,92,0.00,,,0.04,,2013-03-24 14:12:00,
2013-03-24 09:22:00,25.0,23.0,30.06,NNW,341,18.0,20.0,91,0.00,,,0.04,,2013-03-24 14:22:00,
2013-03-24 09:32:00,25.0,23.0,30.05,NNW,331,13.0,20.0,91,0.00,,,0.04,,2013-03-24 14:32:00,
2013-03-24 09:42:00,25.0,23.0,30.05,NNW,331,13.0,20.0,91,0.00,,,0.04,,2013-03-24 14:42:00,
2013-03-24 09:52:00,25.0,23.0,30.05,NNW,336,18.0,21.0,91,0.00,,,0.04,,2013-03-24 14:52:00,
2013-03-24 10:02:00,25.0,23.0,30.05,NNW,334,15.0,21.0,91,0.00,,,0.04,,2013-03-24 15:02:00,
2013-03-24 10:12:00,25.0,23.0,30.05,NNW,334,15.0,21.0,91,0.00,,,0.04,,2013-03-24 15:12:00,
2013-03-24 10:22:00,25.0,23.0,30.06,NNW,334,16.0,20.0,91,0.00,,,0.04,,2013-03-24 15:22:00,
2013-03-24 10:33:00,25.0,22.0,30.06,NNW,337,15.0,20.0,90,0.00,,,0.04,,2013-03-24 15:33:00,
2013-03-24 10:43:00,25.0,22.0,30.06,NNW,337,15.0,20.0,90,0.00,,,0.04,,2013-03-24 15:43:00,
2013-03-24 10:53:00,24.0,21.0,30.06,NNW,334,18.0,24.0,89,0.00,,,0.04,,2013-03-24 15:53:00,
2013-03-24 11:02:00,24.0,21.0,30.06,NNW,338,17.0,20.0,89,0.00,,,0.04,,2013-03-24 16:02:00,
2013-03-24 11:12:00,24.0,21.0,30.06,NNW,338,17.0,20.0,89,0.00,,,0.04,,2013-03-24 16:12:00,
2013-03-24 11:22:00,25.0,22.0,30.06,NNW,327,13.0,23.0,88,0.00,,,0.04,,2013-03-24 16:22:00,
2013-03-24 11:33:00,25.0,22.0,30.06,NNW,330,17.0,21.0,87,0.00,,,0.04,,2013-03-24 16:33:00,
2013-03-24 11:42:00,25.0,22.0,30.06,NNW,330,17.0,21.0,87,0.00,,,0.04,,2013-03-24 16:42:00,
2013-03-24 11:52:00,25.0,22.0,30.05,NNW,331,20.0,23.0,87,0.00,,,0.04,,2013-03-24 16:52:00,
2013-03-24 12:02:00,25.0,22.0,30.05,NNW,327,18.0,26.0,87,0.00,,,0.04,,2013-03-24 17:02:00,
2013-03-24 12:12:00,25.0,22.0,30.05,NNW,327,18.0,26.0,87,0.00,,,0.04,,2013-03-24 17:12:00,
2013-03-24 12:23:00,25.0,21.0,30.06,NNW,340,17.0,24.0,86,0.00,,,0.04,,2013-03-24 17:23:00,
2013-03-24 12:32:00,25.0,21.0,30.06,NNW,345,17.0,22.0,86,0.00,,,0.04,,2013-03-24 17:32:00,
2013-03-24 12:42:00,25.0,21.0,30.06,NNW,345,17.0,22.0,86,0.00,,,0.04,,2013-03-24 17:42:00,
2013-03-24 12:53:00,25.0,22.0,30.06,NNW,333,14.0,18.0,87,0.00,,,0.04,,2013-03-24 17:53:00,
2013-03-24 13:02:00,25.0,21.0,30.05,NW,326,17.0,22.0,85,0.00,,,0.04,,2013-03-24 18:02:00,
2013-03-24 13:12:00,25.0,21.0,30.05,NW,326,17.0,22.0,85,0.00,,,0.04,,2013-03-24 18:12:00,
2013-03-24 13:22:00,26.0,21.0,30.05,NNW,336,16.0,17.0,82,0.00,,,0.04,,2013-03-24 18:22:00,
2013-03-24 13:32:00,26.0,21.0,30.05,NW,324,14.0,22.0,82,0.00,,,0.04,,2013-03-24 18:32:00,
2013-03-24 13:42:00,26.0,21.0,30.05,NW,324,14.0,22.0,82,0.00,,,0.04,,2013-03-24 18:42:00,
2013-03-24 13:52:00,26.0,21.0,30.05,NNW,331,15.0,16.0,80,0.00,,,0.04,,2013-03-24 18:52:00,
2013-03-24 14:02:00,27.0,22.0,30.05,NNW,342,14.0,18.0,80,0.00,,,0.04,,2013-03-24 19:02:00,
2013-03-24 14:12:00,27.0,22.0,30.05,NNW,342,14.0,18.0,80,0.00,,,0.04,,2013-03-24 19:12:00,
2013-03-24 14:22:00,26.0,20.0,30.05,NNW,329,17.0,27.0,79,0.00,,,0.04,,2013-03-24 19:22:00,
2013-03-24 14:32:00,27.0,21.0,30.04,NW,326,16.0,22.0,78,0.00,,,0.04,,2013-03-24 19:32:00,
2013-03-24 14:42:00,27.0,21.0,30.04,NW,326,16.0,22.0,78,0.00,,,0.04,,2013-03-24 19:42:00,
2013-03-24 14:53:00,27.0,21.0,30.04,NW,317,16.0,24.0,79,0.00,,,0.04,,2013-03-24 19:53:00,
2013-03-24 15:02:00,26.0,21.0,30.04,NW,326,17.0,23.0,80,0.00,,,0.04,,2013-03-24 20:02:00,
2013-03-24 15:12:00,26.0,21.0,30.04,NW,326,17.0,23.0,80,0.00,,,0.04,,2013-03-24 20:12:00,
2013-03-24 15:22:00,26.0,21.0,30.04,NW,320,18.0,26.0,81,0.00,,,0.04,,2013-03-24 20:22:00,
2013-03-24 15:32:00,26.0,21.0,30.04,NW,326,19.0,23.0,80,0.00,,,0.04,,2013-03-24 20:32:00,
2013-03-24 15:42:00,26.0,21.0,30.04,NW,326,19.0,23.0,80,0.00,,,0.04,,2013-03-24 20:42:00,
2013-03-24 15:53:00,26.0,21.0,30.04,NW,321,18.0,24.0,80,0.00,,,0.04,,2013-03-24 20:53:00,
2013-03-24 16:02:00,27.0,22.0,30.03,NW,314,16.0,21.0,80,0.00,,,0.04,,2013-03-24 21:02:00,
2013-03-24 16:12:00,27.0,22.0,30.03,NW,314,16.0,21.0,80,0.00,,,0.04,,2013-03-24 21:12:00,
2013-03-24 16:22:00,27.0,21.0,30.03,NW,321,20.0,21.0,78,0.00,,,0.04,,2013-03-24 21:22:00,
2013-03-24 16:33:00,27.0,21.0,30.03,NNW,329,17.0,26.0,79,0.00,,,0.04,,2013-03-24 21:33:00,
2013-03-24 16:43:00,27.0,21.0,30.03,NNW,329,17.0,26.0,79,0.00,,,0.04,,2013-03-24 21:43:00,
2013-03-24 16:53:00,27.0,21.0,30.03,NW,326,20.0,28.0,77,0.00,,,0.04,,2013-03-24 21:53:00,
2013-03-24 17:02:00,27.0,21.0,30.03,NW,318,19.0,25.0,78,0.00,,,0.04,,2013-03-24 22:02:00,
2013-03-24 17:13:00,27.0,20.0,30.04,NW,325,17.0,24.0,75,0.00,,,0.04,,2013-03-24 22:13:00,
2013-03-24 17:23:00,27.0,20.0,30.04,NW,325,17.0,24.0,75,0.00,,,0.04,,2013-03-24 22:23:00,
2013-03-24 17:33:00,27.0,21.0,30.04,NNW,333,14.0,23.0,77,0.00,,,0.04,,2013-03-24 22:33:00,
2013-03-24 17:42:00,27.0,21.0,30.04,NNW,333,14.0,23.0,77,0.00,,,0.04,,2013-03-24 22:42:00,
2013-03-24 17:52:00,27.0,20.0,30.04,NNW,328,15.0,20.0,76,0.00,,,0.03,,2013-03-24 22:52:00,
2013-03-24 18:02:00,27.0,20.0,30.04,NW,317,16.0,20.0,76,0.00,,,0.03,,2013-03-24 23:02:00,
2013-03-24 18:12:00,27.0,20.0,30.04,NW,317,16.0,20.0,76,0.00,,,0.03,,2013-03-24 23:12:00,
2013-03-24 18:22:00,27.0,20.0,30.04,NNW,330,16.0,25.0,75,0.00,,,0.03,,2013-03-24 23:22:00,
2013-03-24 18:32:00,27.0,20.0,30.05,NW,324,17.0,25.0,76,0.00,,,0.03,,2013-03-24 23:32:00,
2013-03-24 18:42:00,27.0,20.0,30.05,NW,324,17.0,25.0,76,0.00,,,0.03,,2013-03-24 23:42:00,
2013-03-24 18:52:00,27.0,20.0,30.05,NNW,338,17.0,24.0,76,0.00,,,0.02,,2013-03-24 23:52:00,
2013-03-24 19:02:00,27.0,21.0,30.06,NW,324,14.0,18.0,77,0.00,,,0.02,,2013-03-25 00:02:00,
2013-03-24 19:12:00,27.0,21.0,30.06,NW,324,14.0,18.0,77,0.00,,,0.02,,2013-03-25 00:12:00,
2013-03-24 19:22:00,26.0,21.0,30.06,NNW,328,17.0,20.0,80,0.00,,,0.02,,2013-03-25 00:22:00,
2013-03-24 19:32:00,26.0,21.0,30.06,NNW,334,13.0,18.0,82,0.00,,,0.02,,2013-03-25 00:32:00,
2013-03-24 19:42:00,26.0,21.0,30.06,NNW,334,13.0,18.0,82,0.00,,,0.02,,2013-03-25 00:42:00,
2013-03-24 19:53:00,26.0,22.0,30.07,NW,315,14.0,18.0,86,0.00,,,0.02,,2013-03-25 00:53:00,
2013-03-24 20:02:00,26.0,22.0,30.07,NW,325,12.0,21.0,86,0.00,,,0.02,,2013-03-25 01:02:00,
2013-03-24 20:12:00,26.0,22.0,30.07,NW,325,12.0,21.0,86,0.00,,,0.02,,2013-03-25 01:12:00,
2013-03-24 20:22:00,26.0,23.0,30.07,NNW,328,9.0,11.0,87,0.00,,,0.02,,2013-03-25 01:22:00,
2013-03-24 20:32:00,25.0,22.0,30.07,NW,326,12.0,16.0,88,0.00,,,0.02,,2013-03-25 01:32:00,
2013-03-24 20:42:00,25.0,22.0,30.07,NW,326,12.0,16.0,88,0.00,,,0.02,,2013-03-25 01:42:00,
2013-03-24 20:52:00,26.0,22.0,30.07,NW,326,12.0,13.0,86,0.00,,,0.02,,2013-03-25 01:52:00,
2013-03-24 21:02:00,26.0,23.0,30.08,NNW,327,10.0,15.0,87,0.00,,,0.01,,2013-03-25 02:02:00,
2013-03-24 21:12:00,26.0,23.0,30.08,NNW,327,10.0,15.0,87,0.00,,,0.01,,2013-03-25 02:12:00,
2013-03-24 21:22:00,25.0,22.0,30.08,NNW,329,10.0,12.0,87,0.00,,,0.01,,2013-03-25 02:22:00,
2013-03-24 21:32:00,25.0,22.0,30.08,NW,322,12.0,14.0,88,0.00,,,0.01,,2013-03-25 02:32:00,
2013-03-24 21:42:00,25.0,22.0,30.08,NW,325,11.0,14.0,88,0.00,,,0.01,,2013-03-25 02:42:00,
2013-03-24 21:52:00,25.0,22.0,30.08,NW,325,11.0,14.0,88,0.00,,,0.01,,2013-03-25 02:52:00,
2013-03-24 22:02:00,25.0,22.0,30.08,NW,325,13.0,17.0,88,0.00,,,0.01,,2013-03-25 03:02:00,
2013-03-24 22:12:00,25.0,22.0,30.08,NW,325,13.0,17.0,88,0.00,,,0.01,,2013-03-25 03:12:00,
2013-03-24 22:22:00,25.0,22.0,30.08,NW,321,12.0,16.0,88,0.00,,,0.01,,2013-03-25 03:22:00,
2013-03-24 22:33:00,25.0,22.0,30.08,NW,325,8.0,13.0,89,0.00,,,0.01,,2013-03-25 03:33:00,
2013-03-24 22:42:00,25.0,23.0,30.08,NW,325,13.0,18.0,92,0.00,,,0.01,,2013-03-25 03:42:00,
2013-03-24 22:53:00,25.0,23.0,30.08,NW,325,13.0,18.0,92,0.00,,,0.01,,2013-03-25 03:53:00,
2013-03-24 23:02:00,25.0,23.0,30.08,NW,323,11.0,16.0,92,0.00,,,0.01,,2013-03-25 04:02:00,
2013-03-24 23:12:00,25.0,23.0,30.08,NW,323,11.0,16.0,92,0.00,,,0.01,,2013-03-25 04:12:00,
2013-03-24 23:22:00,25.0,23.0,30.08,NW,323,11.0,15.0,93,0.00,,,0.01,,2013-03-25 04:22:00,
2013-03-24 23:32:00,25.0,24.0,30.08,NNW,333,10.0,12.0,94,0.00,,,0.01,,2013-03-25 04:32:00,
2013-03-24 23:42:00,25.0,24.0,30.08,NNW,333,10.0,12.0,94,0.00,,,0.01,,2013-03-25 04:42:00,
2013-03-24 23:52:00,25.0,24.0,30.08,NW,323,12.0,17.0,94,0.00,,,0.01,,2013-03-25 04:52:00,